Time;durP1;ratioP1;P1;durP2;ratioP2;P2;SDS_P1;SDS_P2;PMS_P1;PMS_P2;Temp;Humidity;BMP_temperature;BMP_pressure;BME280_temperature;BME280_humidity;BME280_pressure;Samples;Min_cycle;Max_cycle;Signal;HPM_P1;HPM_P2
2023/03/19 00:01:40;;;;;;;0.40;0.40;;;;;;;5.78;96.34;100356.22;5047668;28;20382;-71
2023/03/19 00:04:06;;;;;;;0.50;0.50;;;;;;;5.79;96.53;100360.53;5062930;28;20025;-71
2023/03/19 00:06:32;;;;;;;0.50;0.50;;;;;;;5.78;96.30;100358.81;5062841;28;20043;-71
2023/03/19 00:08:58;;;;;;;0.40;0.40;;;;;;;5.75;96.57;100364.78;5047502;28;20017;-71
2023/03/19 00:11:23;;;;;;;0.40;0.40;;;;;;;5.81;96.62;100366.56;5047562;28;20044;-71
2023/03/19 00:13:49;;;;;;;0.40;0.40;;;;;;;5.82;96.73;100351.13;5047502;28;20504;-71
2023/03/19 00:16:15;;;;;;;0.50;0.50;;;;;;;5.86;96.38;100359.75;5047200;28;20076;-71
2023/03/19 00:18:40;;;;;;;0.45;0.45;;;;;;;5.81;96.35;100370.00;5047424;28;20052;-71
2023/03/19 00:21:06;;;;;;;0.40;0.40;;;;;;;5.79;96.38;100369.13;5047161;28;20099;-71
2023/03/19 00:23:31;;;;;;;0.50;0.50;;;;;;;5.80;96.45;100377.69;5047314;28;20449;-72
2023/03/19 00:25:57;;;;;;;0.50;0.50;;;;;;;5.82;96.42;100376.03;5047311;28;20473;-72
2023/03/19 00:28:22;;;;;;;0.40;0.40;;;;;;;5.80;96.31;100373.44;5047234;28;20041;-72
2023/03/19 00:30:48;;;;;;;0.40;0.40;;;;;;;5.81;96.61;100374.31;5047346;28;20048;-71
2023/03/19 00:33:13;;;;;;;0.40;0.40;;;;;;;5.87;96.64;100376.94;5047263;28;20029;-71
2023/03/19 00:35:39;;;;;;;0.40;0.40;;;;;;;5.90;96.46;100378.66;5046999;28;20071;-71
2023/03/19 00:38:05;;;;;;;0.40;0.40;;;;;;;5.81;96.32;100369.16;5047141;28;20077;-71
2023/03/19 00:40:31;;;;;;;0.45;0.45;;;;;;;5.78;96.37;100380.25;5061969;28;20049;-71
2023/03/19 00:42:56;;;;;;;0.47;0.47;;;;;;;5.72;96.30;100377.63;5047005;28;20049;-71
2023/03/19 00:45:22;;;;;;;0.40;0.40;;;;;;;5.75;96.72;100377.66;5046884;28;20474;-71
2023/03/19 00:47:49;;;;;;;0.40;0.40;;;;;;;5.74;96.69;100363.06;5047230;28;20017;-71
2023/03/19 00:50:14;;;;;;;0.40;0.40;;;;;;;5.83;96.88;100370.88;5047168;28;20060;-71
2023/03/19 00:52:40;;;;;;;0.40;0.40;;;;;;;5.86;96.91;100380.38;5047243;28;20026;-71
2023/03/19 00:55:05;;;;;;;0.40;0.40;;;;;;;5.90;96.66;100382.13;5047350;28;20041;-72
2023/03/19 00:57:31;;;;;;;0.40;0.40;;;;;;;5.95;96.71;100377.00;5046074;28;20450;-72
2023/03/19 00:59:56;;;;;;;0.40;0.40;;;;;;;5.97;96.59;100377.91;5046560;28;20026;-72
2023/03/19 01:02:21;;;;;;;1.02;1.02;;;;;;;6.00;96.54;100374.47;5046537;28;20029;-72
2023/03/19 01:04:48;;;;;;;0.70;0.70;;;;;;;5.99;96.28;100377.91;5046615;28;20029;-67
2023/03/19 01:07:13;;;;;;;1.05;1.05;;;;;;;5.93;96.20;100386.44;5046432;28;20036;-66
2023/03/19 01:09:40;;;;;;;0.50;0.50;;;;;;;5.89;96.36;100380.41;5046394;28;20021;-66
2023/03/19 01:12:06;;;;;;;0.45;0.45;;;;;;;5.86;96.22;100382.94;5046410;28;20021;-65
2023/03/19 01:14:32;;;;;;;0.40;0.40;;;;;;;5.81;96.21;100388.03;5046188;28;20044;-65
2023/03/19 01:16:57;;;;;;;2.55;2.38;;;;;;;5.77;96.08;100386.28;5046184;28;20046;-65
2023/03/19 01:19:23;;;;;;;0.50;0.50;;;;;;;5.72;95.15;100379.34;5046059;28;20036;-64
2023/03/19 01:21:49;;;;;;;0.40;0.40;;;;;;;5.55;95.44;100382.59;5045945;28;20108;-64
2023/03/19 01:24:15;;;;;;;0.40;0.40;;;;;;;5.49;95.69;100380.81;5046315;28;20096;-63
2023/03/19 01:26:41;;;;;;;0.60;0.60;;;;;;;5.48;96.17;100385.94;5046125;28;20073;-64
2023/03/19 01:29:07;;;;;;;0.50;0.50;;;;;;;5.44;96.40;100383.34;5046162;28;20056;-64
2023/03/19 01:31:34;;;;;;;0.40;0.40;;;;;;;5.46;96.60;100393.66;5045911;28;20032;-64
2023/03/19 01:34:00;;;;;;;0.50;0.50;;;;;;;5.45;96.58;100390.19;5045978;28;20104;-64
2023/03/19 01:36:26;;;;;;;0.45;0.45;;;;;;;5.39;96.59;100386.69;5045889;28;20207;-63
2023/03/19 01:38:52;;;;;;;0.40;0.40;;;;;;;5.38;96.85;100383.25;5045947;28;20025;-64
2023/03/19 01:41:18;;;;;;;0.40;0.40;;;;;;;5.38;96.97;100388.41;5045841;28;20068;-64
2023/03/19 01:43:43;;;;;;;0.50;0.50;;;;;;;5.36;96.95;100379.78;5045631;28;20021;-64
2023/03/19 01:46:27;;;;;;;0.60;0.60;;;;;;;5.32;97.02;100383.16;5045761;28;20048;-65
2023/03/19 01:48:59;;;;;;;1.30;1.30;;;;;;;5.28;96.89;100383.97;5045693;28;20021;-65
2023/03/19 01:51:31;;;;;;;0.50;0.50;;;;;;;5.26;96.65;100378.81;5045442;28;20052;-65
2023/03/19 01:53:59;;;;;;;0.40;0.40;;;;;;;5.23;96.26;100377.88;5045854;28;20033;-65
2023/03/19 01:56:34;;;;;;;0.40;0.40;;;;;;;5.15;96.74;100372.66;5045662;28;20080;-65
2023/03/19 01:59:06;;;;;;;0.50;0.50;;;;;;;5.16;96.40;100377.81;5045672;28;20051;-65
2023/03/19 02:01:37;;;;;;;0.40;0.40;;;;;;;4.81;96.55;100325.03;5045470;28;20021;-65
2023/03/19 02:04:03;;;;;;;0.53;0.53;;;;;;;5.01;97.12;100367.31;5045510;28;20042;-64
2023/03/19 02:06:29;;;;;;;0.40;0.40;;;;;;;5.00;97.24;100381.88;5045278;28;20029;-65
2023/03/19 02:08:55;;;;;;;0.50;0.50;;;;;;;5.04;97.65;100378.53;5045338;28;20018;-65
2023/03/19 02:11:21;;;;;;;0.50;0.50;;;;;;;5.11;96.96;100379.47;5045266;28;20057;-64
2023/03/19 02:13:47;;;;;;;0.45;0.45;;;;;;;5.06;97.21;100391.41;5045494;28;20030;-64
2023/03/19 02:16:14;;;;;;;0.40;0.40;;;;;;;5.03;97.01;100381.91;5044902;28;20124;-65
2023/03/19 02:18:40;;;;;;;0.40;0.40;;;;;;;5.00;97.22;100387.03;5060556;28;20167;-65
2023/03/19 02:21:09;;;;;;;0.43;0.43;;;;;;;5.05;97.06;100387.09;5045121;28;20085;-66
2023/03/19 02:23:59;;;;;;;0.43;0.43;;;;;;;4.94;97.74;100392.97;5045342;28;20090;-66
2023/03/19 02:26:27;;;;;;;0.40;0.40;;;;;;;4.99;97.39;100397.28;5060734;28;20486;-67
2023/03/19 02:28:53;;;;;;;0.40;0.40;;;;;;;5.04;97.23;100398.22;5044994;28;20124;-66
2023/03/19 02:31:19;;;;;;;0.43;0.43;;;;;;;4.87;97.37;100370.56;5060302;28;20029;-66
2023/03/19 02:34:25;;;;;;;0.80;0.80;;;;;;;4.92;98.05;100384.34;5045057;28;20071;-68
2023/03/19 02:36:57;;;;;;;0.50;0.50;;;;;;;4.91;98.02;100389.47;5044477;28;20029;-65
2023/03/19 02:39:34;;;;;;;0.40;0.40;;;;;;;4.86;98.47;100381.69;5045021;28;20025;-65
2023/03/19 02:42:01;;;;;;;0.40;0.40;;;;;;;4.89;98.33;100384.31;5043600;28;20036;-66
2023/03/19 02:44:26;;;;;;;0.40;0.40;;;;;;;4.99;97.84;100387.00;5044805;28;20036;-69
2023/03/19 02:46:51;;;;;;;0.40;0.40;;;;;;;4.84;97.69;100381.66;5045018;28;20025;-66
2023/03/19 02:49:17;;;;;;;0.50;0.50;;;;;;;4.79;98.37;100392.75;5044779;28;20101;-67
2023/03/19 02:51:43;;;;;;;0.40;0.40;;;;;;;4.80;98.32;100386.75;5044698;28;20041;-68
2023/03/19 02:54:09;;;;;;;0.50;0.50;;;;;;;4.81;98.64;100396.19;5044791;28;20075;-67
2023/03/19 02:56:35;;;;;;;0.40;0.40;;;;;;;4.84;98.50;100401.38;5045119;28;20021;-67
2023/03/19 02:59:00;;;;;;;0.50;0.50;;;;;;;4.83;97.92;100400.53;5044833;28;20103;-68
2023/03/19 03:01:25;;;;;;;0.40;0.40;;;;;;;4.74;98.59;100404.66;5044728;28;20021;-68
2023/03/19 03:03:51;;;;;;;0.40;0.40;;;;;;;4.75;99.14;100390.94;5045009;28;20114;-68
2023/03/19 03:06:16;;;;;;;0.40;0.40;;;;;;;4.76;99.42;100390.13;5044565;28;20029;-68
2023/03/19 03:08:43;;;;;;;1.63;1.52;;;;;;;4.81;99.29;100394.47;5045039;28;20022;-68
2023/03/19 03:11:08;;;;;;;0.50;0.50;;;;;;;4.88;98.97;100402.28;5043319;28;20048;-68
2023/03/19 03:13:34;;;;;;;0.40;0.40;;;;;;;4.92;98.01;100394.63;5044809;28;20022;-68
2023/03/19 03:16:00;;;;;;;0.50;0.50;;;;;;;4.86;98.27;100394.56;5044379;28;20022;-68
2023/03/19 03:18:26;;;;;;;0.40;0.40;;;;;;;4.82;98.52;100395.34;5044610;28;20104;-68
2023/03/19 03:20:52;;;;;;;0.70;0.70;;;;;;;4.87;98.09;100400.56;5045630;28;20127;-69
2023/03/19 03:23:18;;;;;;;0.45;0.45;;;;;;;4.84;98.06;100397.09;5048692;28;20044;-69
2023/03/19 03:25:44;;;;;;;0.50;0.50;;;;;;;4.78;98.67;100409.88;5048175;28;20022;-68
2023/03/19 03:28:11;;;;;;;0.50;0.50;;;;;;;4.77;98.91;100403.00;5046876;28;20160;-69
2023/03/19 03:30:37;;;;;;;0.50;0.50;;;;;;;4.77;98.98;100400.44;5048312;28;20029;-69
2023/03/19 03:33:02;;;;;;;0.40;0.40;;;;;;;4.75;98.87;100408.94;5048381;28;20415;-68
2023/03/19 03:35:27;;;;;;;0.40;0.40;;;;;;;4.84;99.05;100407.38;5048115;28;20026;-67
2023/03/19 03:37:53;;;;;;;0.43;0.43;;;;;;;4.82;98.81;100405.66;5048094;28;20041;-68
2023/03/19 03:40:19;;;;;;;0.40;0.40;;;;;;;4.77;99.07;100404.69;5048115;28;20089;-68
2023/03/19 03:42:44;;;;;;;0.40;0.40;;;;;;;4.78;99.21;100396.13;5063410;28;20048;-67
2023/03/19 03:45:11;;;;;;;0.50;0.50;;;;;;;4.87;98.78;100398.00;5048151;28;20021;-69
2023/03/19 03:47:36;;;;;;;0.50;0.50;;;;;;;4.86;97.97;100394.56;5047875;28;20029;-68
2023/03/19 03:50:04;;;;;;;0.40;0.40;;;;;;;4.73;98.35;100392.66;5047936;28;20425;-68
2023/03/19 03:52:30;;;;;;;0.40;0.40;;;;;;;4.69;98.87;100402.88;5047675;28;20021;-67
2023/03/19 03:54:59;;;;;;;0.50;0.50;;;;;;;4.75;98.94;100401.22;5047734;28;20056;-67
2023/03/19 03:57:25;;;;;;;0.50;0.50;;;;;;;4.71;99.07;100398.63;5048175;28;20044;-67
2023/03/19 03:59:51;;;;;;;0.50;0.50;;;;;;;4.67;99.15;100399.41;5063001;28;20029;-68
2023/03/19 04:02:16;;;;;;;0.40;0.40;;;;;;;4.70;99.60;100408.88;5047788;28;20021;-67
2023/03/19 04:04:42;;;;;;;0.40;0.40;;;;;;;4.76;99.34;100406.41;5046244;28;20040;-67
2023/03/19 04:07:08;;;;;;;0.50;0.50;;;;;;;4.73;99.12;100408.09;5062918;28;20022;-66
2023/03/19 04:09:33;;;;;;;0.47;0.47;;;;;;;4.72;99.44;100407.22;5047466;28;20086;-66
2023/03/19 04:11:59;;;;;;;0.43;0.43;;;;;;;4.77;99.59;100409.84;5047516;28;20021;-68
2023/03/19 04:14:25;;;;;;;9.18;3.05;;;;;;;4.72;99.34;100409.78;5047652;28;20032;-68
2023/03/19 04:16:51;;;;;;;0.43;0.43;;;;;;;4.75;99.61;100406.38;5047382;28;20051;-67
2023/03/19 04:19:16;;;;;;;0.55;0.55;;;;;;;4.78;99.50;100404.72;5047296;28;20049;-67
2023/03/19 04:21:42;;;;;;;0.40;0.40;;;;;;;4.79;99.46;100409.00;5047176;28;20026;-67
2023/03/19 04:24:09;;;;;;;0.75;0.75;;;;;;;4.79;99.27;100410.75;5047179;28;20025;-67
2023/03/19 04:26:35;;;;;;;0.40;0.40;;;;;;;4.75;99.34;100407.25;5047091;28;20045;-68
2023/03/19 04:29:00;;;;;;;0.50;0.50;;;;;;;4.78;99.18;100403.84;5047143;28;20025;-68
2023/03/19 04:31:26;;;;;;;0.40;0.40;;;;;;;4.79;98.96;100403.88;5046776;28;20028;-67
2023/03/19 04:33:52;;;;;;;0.60;0.60;;;;;;;4.80;98.62;100415.03;5046227;28;20032;-67
2023/03/19 04:36:17;;;;;;;0.50;0.50;;;;;;;4.76;98.74;100418.41;5046784;28;20021;-66
2023/03/19 04:38:43;;;;;;;0.40;0.40;;;;;;;4.69;98.93;100415.75;5046911;28;20029;-67
2023/03/19 04:41:09;;;;;;;0.40;0.40;;;;;;;4.69;99.04;100423.47;5046816;28;20048;-67
2023/03/19 04:43:35;;;;;;;0.50;0.50;;;;;;;4.72;98.82;100425.22;5046935;28;20017;-66
2023/03/19 04:46:00;;;;;;;1.15;1.15;;;;;;;4.66;99.13;100418.28;5047062;28;20075;-67
2023/03/19 04:48:26;;;;;;;0.50;0.50;;;;;;;4.69;99.13;100423.47;5046833;28;20022;-67
2023/03/19 04:50:52;;;;;;;0.50;0.50;;;;;;;4.70;99.14;100420.03;5046485;28;20034;-66
2023/03/19 04:53:19;;;;;;;0.40;0.40;;;;;;;4.70;98.88;100421.72;5046861;28;20021;-66
2023/03/19 04:55:46;;;;;;;0.40;0.40;;;;;;;4.70;98.65;100416.59;5046763;28;20056;-66
2023/03/19 04:58:11;;;;;;;0.40;0.40;;;;;;;4.66;98.71;100418.28;5046616;28;20022;-65
2023/03/19 05:00:37;;;;;;;0.50;0.50;;;;;;;4.61;98.56;100419.91;5061694;28;20484;-65
2023/03/19 05:03:02;;;;;;;0.50;0.50;;;;;;;4.62;98.81;100419.03;5046714;28;20026;-66
2023/03/19 05:05:28;;;;;;;0.40;0.40;;;;;;;4.68;98.47;100421.72;5061937;28;20425;-66
2023/03/19 05:07:54;;;;;;;0.40;0.40;;;;;;;4.61;98.76;100419.03;5046379;28;20064;-66
2023/03/19 05:10:19;;;;;;;1.15;1.15;;;;;;;4.61;98.60;100419.03;5046445;28;20032;-66
2023/03/19 05:12:45;;;;;;;0.40;0.40;;;;;;;4.55;98.77;100423.22;5046388;28;20029;-66
2023/03/19 05:15:10;;;;;;;0.40;0.40;;;;;;;4.59;98.49;100431.84;5046371;28;20097;-66
2023/03/19 05:17:36;;;;;;;0.50;0.50;;;;;;;4.57;98.78;100418.97;5046156;28;20049;-65
2023/03/19 05:20:03;;;;;;;0.65;0.65;;;;;;;4.59;98.60;100429.28;5046156;28;20044;-65
2023/03/19 05:22:29;;;;;;;0.40;0.40;;;;;;;4.58;99.00;100432.72;5046100;28;20022;-66
2023/03/19 05:24:55;;;;;;;0.50;0.50;;;;;;;4.53;99.08;100432.63;5046155;28;20028;-67
2023/03/19 05:27:20;;;;;;;0.80;0.80;;;;;;;4.50;99.24;100431.69;5061610;28;20033;-66
2023/03/19 05:29:47;;;;;;;0.40;0.40;;;;;;;4.54;99.25;100439.50;5045928;28;20041;-67
2023/03/19 05:32:12;;;;;;;0.50;0.50;;;;;;;4.54;99.62;100439.50;5045939;28;20028;-66
2023/03/19 05:34:38;;;;;;;0.40;0.40;;;;;;;4.55;99.63;100445.50;5046153;28;20084;-68
2023/03/19 05:37:03;;;;;;;0.40;0.40;;;;;;;4.58;99.19;100438.69;5045749;28;20100;-67
2023/03/19 05:39:29;;;;;;;0.50;0.50;;;;;;;4.53;99.41;100448.06;5045939;28;20363;-67
2023/03/19 05:41:54;;;;;;;0.50;0.50;;;;;;;4.56;99.68;100442.09;5045737;28;20499;-67
2023/03/19 05:44:20;;;;;;;1.15;1.13;;;;;;;4.60;99.57;100443.84;5045826;28;20378;-66
2023/03/19 05:46:45;;;;;;;0.40;0.40;;;;;;;4.59;99.40;100440.44;5046023;28;20326;-66
2023/03/19 05:49:11;;;;;;;0.40;0.40;;;;;;;4.53;99.82;100445.47;5045817;28;20025;-65
2023/03/19 05:51:36;;;;;;;0.40;0.40;;;;;;;4.55;99.86;100448.09;5061073;28;20034;-66
2023/03/19 05:54:02;;;;;;;0.40;0.40;;;;;;;4.56;100.00;100445.53;5045753;28;20056;-66
2023/03/19 05:56:28;;;;;;;0.40;0.40;;;;;;;4.58;100.00;100451.53;5045611;28;20370;-66
2023/03/19 05:58:54;;;;;;;0.50;0.50;;;;;;;4.55;99.89;100441.22;5045653;28;20081;-65
2023/03/19 06:01:19;;;;;;;0.50;0.50;;;;;;;4.61;99.92;100443.03;5045605;28;20052;-65
2023/03/19 06:03:45;;;;;;;0.50;0.50;;;;;;;4.58;99.84;100450.69;5044539;28;20402;-65
2023/03/19 06:06:11;;;;;;;0.50;0.50;;;;;;;4.60;99.88;100456.72;5045347;28;20444;-65
2023/03/19 06:08:36;;;;;;;0.60;0.60;;;;;;;4.59;100.00;100443.00;5045761;28;20017;-64
2023/03/19 06:11:02;;;;;;;0.50;0.50;;;;;;;4.65;100.00;100449.09;5045348;28;20104;-65
2023/03/19 06:13:27;;;;;;;0.43;0.43;;;;;;;4.69;100.00;100453.44;5045365;28;20088;-65
2023/03/19 06:15:52;;;;;;;0.50;0.50;;;;;;;4.66;100.00;100458.53;5045149;28;20025;-64
2023/03/19 06:18:18;;;;;;;0.50;0.50;;;;;;;4.63;100.00;100449.09;5044891;28;20021;-66
2023/03/19 06:20:45;;;;;;;0.40;0.40;;;;;;;4.68;100.00;100462.03;5045217;28;20052;-65
2023/03/19 06:23:11;;;;;;;0.75;0.75;;;;;;;4.64;100.00;100455.94;5045066;28;20049;-65
2023/03/19 06:25:37;;;;;;;0.50;0.50;;;;;;;4.60;99.93;100459.28;5045124;28;20024;-66
2023/03/19 06:28:03;;;;;;;0.50;0.50;;;;;;;4.61;100.00;100462.72;5045169;28;20026;-65
2023/03/19 06:30:28;;;;;;;0.47;0.47;;;;;;;4.62;100.00;100462.75;5045043;28;20017;-65
2023/03/19 06:32:54;;;;;;;0.40;0.40;;;;;;;4.60;100.00;100464.44;5044964;28;20501;-66
2023/03/19 06:35:20;;;;;;;0.40;0.40;;;;;;;4.59;100.00;100467.84;5045145;28;20445;-65
2023/03/19 06:37:45;;;;;;;0.40;0.40;;;;;;;4.59;100.00;100465.28;5045048;28;20113;-66
2023/03/19 06:40:11;;;;;;;0.40;0.40;;;;;;;4.56;100.00;100463.53;5044917;28;20022;-66
2023/03/19 06:42:36;;;;;;;0.40;0.40;;;;;;;4.61;100.00;100473.03;5045040;28;20021;-66
2023/03/19 06:45:02;;;;;;;0.40;0.40;;;;;;;4.62;100.00;100462.75;5044917;28;20072;-66
2023/03/19 06:47:28;;;;;;;0.40;0.40;;;;;;;4.65;100.00;100467.97;5045112;28;20254;-66
2023/03/19 06:49:53;;;;;;;0.40;0.40;;;;;;;4.64;100.00;100466.22;5044786;28;20028;-66
2023/03/19 06:52:19;;;;;;;0.50;0.50;;;;;;;4.70;100.00;100476.63;5044810;28;20053;-65
2023/03/19 06:54:44;;;;;;;0.40;0.40;;;;;;;4.77;100.00;100477.59;5044005;28;20021;-65
2023/03/19 06:57:10;;;;;;;0.40;0.40;;;;;;;4.81;100.00;100481.06;5048292;28;20025;-65
2023/03/19 06:59:35;;;;;;;0.40;0.40;;;;;;;4.81;100.00;100483.63;5048890;28;20025;-65
2023/03/19 07:02:01;;;;;;;0.50;0.50;;;;;;;4.86;100.00;100486.31;5048800;28;20021;-66
2023/03/19 07:04:26;;;;;;;0.40;0.40;;;;;;;4.86;100.00;100487.16;5048733;28;20035;-65
2023/03/19 07:06:52;;;;;;;0.50;0.50;;;;;;;4.85;100.00;100477.72;5048705;28;20026;-66
2023/03/19 07:09:17;;;;;;;0.40;0.40;;;;;;;4.86;100.00;100484.59;5048856;28;20496;-67
2023/03/19 07:11:42;;;;;;;0.47;0.47;;;;;;;4.93;100.00;100483.88;5048615;28;20021;-66
2023/03/19 07:14:08;;;;;;;0.40;0.40;;;;;;;4.94;100.00;100475.28;5064026;28;20025;-65
2023/03/19 07:16:34;;;;;;;0.40;0.40;;;;;;;5.02;100.00;100477.97;5048606;28;20065;-65
2023/03/19 07:18:59;;;;;;;0.50;0.50;;;;;;;5.05;100.00;100485.75;5048776;28;20416;-65
2023/03/19 07:21:25;;;;;;;0.40;0.40;;;;;;;5.08;100.00;100484.91;5048323;28;20021;-66
2023/03/19 07:23:50;;;;;;;0.40;0.40;;;;;;;5.15;100.00;100494.47;5048539;28;20093;-66
2023/03/19 07:26:17;;;;;;;0.50;0.50;;;;;;;5.16;100.00;100485.06;5048461;28;20036;-65
2023/03/19 07:28:42;;;;;;;0.50;0.50;;;;;;;5.16;100.00;100480.75;5048499;28;20078;-65
2023/03/19 07:31:08;;;;;;;0.40;0.40;;;;;;;5.20;100.00;100477.41;5048141;28;20025;-66
2023/03/19 07:33:33;;;;;;;0.40;0.40;;;;;;;5.25;100.00;100489.47;5048334;28;20025;-66
2023/03/19 07:35:59;;;;;;;0.40;0.40;;;;;;;5.26;100.00;100488.63;5048104;28;20021;-66
2023/03/19 07:38:24;;;;;;;0.40;0.40;;;;;;;5.26;100.00;100474.03;5046973;28;20060;-66
2023/03/19 07:40:50;;;;;;;0.40;0.40;;;;;;;5.31;100.00;100469.84;5048141;28;20085;-66
2023/03/19 07:43:15;;;;;;;0.40;0.40;;;;;;;5.38;100.00;100481.09;5047034;28;20028;-66
2023/03/19 07:45:41;;;;;;;0.40;0.40;;;;;;;5.39;100.00;100475.09;5048241;28;20025;-66
2023/03/19 07:48:07;;;;;;;0.40;0.40;;;;;;;5.39;100.00;100467.38;5048008;28;20031;-67
2023/03/19 07:50:33;;;;;;;0.40;0.40;;;;;;;5.46;100.00;100473.47;5048221;28;20021;-68
2023/03/19 07:52:58;;;;;;;0.40;0.40;;;;;;;5.51;100.00;100476.13;5047954;28;20028;-66
2023/03/19 07:55:24;;;;;;;0.40;0.40;;;;;;;5.54;100.00;100464.13;5063091;28;20025;-67
2023/03/19 07:57:50;;;;;;;0.40;0.40;;;;;;;5.58;100.00;100473.63;5047975;28;20021;-67
2023/03/19 08:00:16;;;;;;;0.40;0.40;;;;;;;5.56;100.00;100466.72;5047836;28;20060;-67
2023/03/19 08:02:41;;;;;;;0.40;0.40;;;;;;;5.63;100.00;100458.25;5047784;28;20025;-67
2023/03/19 08:05:08;;;;;;;0.50;0.50;;;;;;;5.67;100.00;100466.88;5047793;28;20075;-67
2023/03/19 08:07:34;;;;;;;0.45;0.45;;;;;;;5.63;100.00;100463.41;5047297;28;20047;-68
2023/03/19 08:09:59;;;;;;;0.50;0.50;;;;;;;5.73;100.00;100469.53;5047850;28;20080;-67
2023/03/19 08:12:25;;;;;;;0.50;0.50;;;;;;;5.79;100.00;100468.72;5047365;28;20025;-68
2023/03/19 08:14:50;;;;;;;0.40;0.40;;;;;;;5.85;100.00;100470.53;5047562;28;20365;-68
2023/03/19 08:17:16;;;;;;;0.40;0.40;;;;;;;5.85;100.00;100468.81;5047196;28;20091;-68
2023/03/19 08:19:42;;;;;;;0.40;0.40;;;;;;;5.87;100.00;100469.69;5047658;28;20064;-67
2023/03/19 08:22:07;;;;;;;0.43;0.43;;;;;;;5.93;100.00;100472.34;5047175;28;20025;-69
2023/03/19 08:24:33;;;;;;;0.40;0.40;;;;;;;5.98;100.00;100467.25;5046049;28;20022;-73
2023/03/19 08:26:59;;;;;;;0.40;0.40;;;;;;;6.04;100.00;100479.31;5047312;28;20480;-70
2023/03/19 08:29:28;;;;;;;0.40;0.40;;;;;;;6.09;100.00;100474.28;5047309;28;20025;-69
2023/03/19 08:31:54;;;;;;;0.50;0.50;;;;;;;6.10;100.00;100460.53;5047145;28;20029;-69
2023/03/19 08:34:21;;;;;;;0.40;0.40;;;;;;;6.16;100.00;100461.47;5047293;28;20091;-69
2023/03/19 08:36:47;;;;;;;0.40;0.40;;;;;;;6.26;100.00;100456.41;5047061;28;20029;-69
2023/03/19 08:39:12;;;;;;;0.40;0.40;;;;;;;6.45;100.00;100466.03;5047392;28;20081;-69
2023/03/19 08:41:38;;;;;;;0.40;0.40;;;;;;;6.61;100.00;100462.75;5062273;28;20397;-70
2023/03/19 08:44:03;;;;;;;0.40;0.40;;;;;;;6.61;100.00;100455.00;5047061;28;20025;-69
2023/03/19 08:46:29;;;;;;;1.02;1.02;;;;;;;6.64;100.00;100465.34;5047070;28;20029;-69
2023/03/19 08:48:55;;;;;;;0.40;0.40;;;;;;;6.76;100.00;100467.16;5047130;28;20041;-70
2023/03/19 08:51:22;;;;;;;0.40;0.40;;;;;;;6.82;100.00;100462.06;5046676;28;20084;-71
2023/03/19 08:53:48;;;;;;;0.45;0.45;;;;;;;6.87;100.00;100468.13;5047049;28;20018;-70
2023/03/19 08:56:13;;;;;;;0.40;0.40;;;;;;;6.91;100.00;100466.44;5046783;28;20084;-72
2023/03/19 08:58:40;;;;;;;0.40;0.40;;;;;;;6.93;100.00;100459.56;5046760;28;20100;-70
2023/03/19 09:01:09;;;;;;;0.40;0.40;;;;;;;7.08;100.00;100461.38;5045396;28;20029;-70
2023/03/19 09:03:35;;;;;;;0.40;0.40;;;;;;;7.21;100.00;100474.38;5062111;28;20541;-71
2023/03/19 09:06:03;;;;;;;0.40;0.40;;;;;;;7.23;100.00;100467.50;5061843;28;20119;-71
2023/03/19 09:08:29;;;;;;;0.40;0.40;;;;;;;7.17;100.00;100463.19;5046662;28;20085;-72
2023/03/19 09:10:56;;;;;;;0.40;0.40;;;;;;;7.10;100.00;100462.28;5046711;28;20026;-69
2023/03/19 09:13:21;;;;;;;0.40;0.40;;;;;;;7.09;100.00;100464.84;5046505;28;20049;-69
2023/03/19 09:15:47;;;;;;;0.40;0.40;;;;;;;7.09;100.00;100450.22;5046438;28;20036;-70
2023/03/19 09:18:13;;;;;;;0.40;0.40;;;;;;;7.24;100.00;100453.72;5045901;28;20037;-71
2023/03/19 09:20:38;;;;;;;0.40;0.40;;;;;;;7.25;100.00;100463.22;5046167;28;20053;-69
2023/03/19 09:23:04;;;;;;;0.40;0.40;;;;;;;7.27;100.00;100464.94;5046260;28;20105;-69
2023/03/19 09:25:29;;;;;;;0.40;0.40;;;;;;;7.24;100.00;100454.59;5061577;28;20021;-70
2023/03/19 09:27:55;;;;;;;0.40;0.40;;;;;;;7.38;100.00;100459.00;5046128;28;20032;-70
2023/03/19 09:30:20;;;;;;;0.45;0.45;;;;;;;7.46;100.00;100456.47;5046323;28;20105;-70
2023/03/19 09:32:46;;;;;;;0.40;0.40;;;;;;;7.54;100.00;100462.53;5045839;28;20105;-72
2023/03/19 09:35:11;;;;;;;0.40;0.40;;;;;;;7.52;100.00;100472.00;5046021;28;20025;-70
2023/03/19 09:37:37;;;;;;;0.40;0.40;;;;;;;7.46;100.00;100456.47;5045790;28;20025;-69
2023/03/19 09:40:04;;;;;;;0.40;0.40;;;;;;;7.55;100.00;100472.00;5045723;28;20045;-69
2023/03/19 09:42:38;;;;;;;0.40;0.40;;;;;;;7.59;100.00;100476.31;5044513;28;20107;-71
2023/03/19 09:45:11;;;;;;;0.40;0.40;;;;;;;7.54;100.00;100478.03;5061281;28;20128;-68
2023/03/19 09:47:38;;;;;;;0.40;0.40;;;;;;;7.47;100.00;100471.09;5045890;28;20047;-71
2023/03/19 09:50:16;;;;;;;0.40;0.40;;;;;;;7.28;100.00;100466.69;5061102;28;20018;-67
2023/03/19 09:53:06;;;;;;;0.40;0.40;;;;;;;7.32;100.00;100478.78;5045984;28;20100;-68
2023/03/19 09:55:32;;;;;;;0.40;0.40;;;;;;;7.34;100.00;100481.34;5045738;28;20481;-68
2023/03/19 09:57:57;;;;;;;0.40;0.40;;;;;;;7.36;100.00;100484.81;5045559;28;20036;-71
2023/03/19 10:00:34;;;;;;;0.50;0.50;;;;;;;7.18;100.00;100459.75;5044328;28;20025;-70
2023/03/19 10:03:15;;;;;;;0.50;0.50;;;;;;;7.30;100.00;100477.03;5044125;28;20089;-68
2023/03/19 10:05:50;;;;;;;0.40;0.40;;;;;;;7.16;99.85;100477.81;5045566;28;20037;-69
2023/03/19 10:08:22;;;;;;;0.40;0.40;;;;;;;7.13;100.00;100475.19;5060567;28;20029;-68
2023/03/19 10:10:50;;;;;;;0.50;0.50;;;;;;;7.12;100.00;100476.06;5045335;28;20021;-68
2023/03/19 10:13:24;;;;;;;0.40;0.40;;;;;;;7.19;100.00;100471.78;5045100;28;20032;-68
2023/03/19 10:15:52;;;;;;;0.40;0.40;;;;;;;7.25;100.00;100476.97;5060407;28;20028;-66
2023/03/19 10:18:30;;;;;;;0.40;0.40;;;;;;;7.23;100.00;100483.88;5045172;28;20034;-69
2023/03/19 10:21:09;;;;;;;0.50;0.50;;;;;;;7.16;100.00;100482.09;5045078;28;20567;-69
2023/03/19 10:23:43;;;;;;;0.40;0.40;;;;;;;7.04;100.00;100470.84;5045319;28;20498;-68
2023/03/19 10:26:14;;;;;;;0.40;0.40;;;;;;;7.16;100.00;100484.66;5060526;28;20496;-68
2023/03/19 10:28:43;;;;;;;0.40;0.40;;;;;;;7.17;100.00;100474.34;5044959;28;20028;-68
2023/03/19 10:31:26;;;;;;;0.40;0.40;;;;;;;7.13;100.00;100479.50;5044105;28;20029;-68
2023/03/19 10:34:01;;;;;;;0.40;0.40;;;;;;;7.12;100.00;100477.78;5045077;28;20030;-74
2023/03/19 10:36:34;;;;;;;0.40;0.40;;;;;;;7.16;100.00;100466.59;5043491;28;20026;-72
2023/03/19 10:38:59;;;;;;;0.40;0.40;;;;;;;7.20;100.00;100455.47;5060218;28;20022;-69
2023/03/19 10:41:41;;;;;;;0.40;0.40;;;;;;;7.26;100.00;100483.91;5044926;28;20406;-69
2023/03/19 10:44:17;;;;;;;0.50;0.50;;;;;;;7.34;100.00;100480.47;5044966;28;20053;-67
2023/03/19 10:46:43;;;;;;;0.40;0.40;;;;;;;7.41;100.00;100483.13;5044272;28;20117;-69
2023/03/19 10:49:13;;;;;;;0.50;0.50;;;;;;;7.32;100.00;100483.94;5044675;28;20017;-69
2023/03/19 10:51:39;;;;;;;0.40;0.40;;;;;;;7.14;100.00;100455.41;5043426;28;20024;-68
2023/03/19 10:54:19;;;;;;;0.40;0.40;;;;;;;7.25;100.00;100464.06;5044596;28;20159;-69
2023/03/19 10:56:46;;;;;;;0.40;0.40;;;;;;;7.27;100.00;100470.13;5044787;28;20056;-69
2023/03/19 10:59:38;;;;;;;0.40;0.40;;;;;;;7.37;100.00;100481.38;5044598;28;20030;-68
2023/03/19 11:02:19;;;;;;;0.40;0.40;;;;;;;7.32;100.00;100467.56;5043492;28;20034;-67
2023/03/19 11:04:45;;;;;;;0.45;0.45;;;;;;;7.44;100.00;100480.53;5044629;28;20028;-65
2023/03/19 11:07:19;;;;;;;0.40;0.40;;;;;;;7.41;100.00;100477.94;5058623;28;20226;-61
2023/03/19 11:09:48;;;;;;;0.40;0.40;;;;;;;7.38;100.00;100488.25;5043801;28;20045;-73
2023/03/19 11:12:19;;;;;;;0.40;0.40;;;;;;;7.44;100.00;100480.53;5058845;28;20052;-67
2023/03/19 11:14:51;;;;;;;0.50;0.50;;;;;;;7.39;100.00;100469.34;5044623;28;20025;-64
2023/03/19 11:17:16;;;;;;;0.40;0.40;;;;;;;7.44;100.00;100472.78;5044610;28;20084;-67
2023/03/19 11:19:50;;;;;;;0.40;0.40;;;;;;;7.42;100.00;100469.34;5044804;28;20026;-68
2023/03/19 11:22:21;;;;;;;0.40;0.40;;;;;;;7.32;100.00;100452.06;5044710;28;20393;-68
2023/03/19 11:24:56;;;;;;;0.40;0.40;;;;;;;7.39;100.00;100455.56;5045302;28;20025;-69
2023/03/19 11:27:33;;;;;;;0.40;0.40;;;;;;;7.58;100.00;100474.59;5043547;28;20025;-65
2023/03/19 11:29:59;;;;;;;0.40;0.40;;;;;;;7.66;100.00;100469.47;5044019;28;20043;-66